Wilkes Barre, PA (18711)

7:11 AM EDT on April 30, 2016 (GMT -0400)
Larkmount Manor | | Change Station

Elev 676 ft 41.27 °N, 75.92 °W | Updated 19 seconds ago

Overcast
Overcast
43.2 °F
Feels Like 43 °F
N
0.0
Wind Variable Wind from North

Today
High -- | Low -- °F
--% Chance of Precip.
Yesterday
High -- | Low -- °F
Precip. -- in
Pressure 30.21 in
Visibility 10.0 miles
Clouds Overcast 2600 ft
Windchill 43 °F
Dew Point 42 °F
Humidity 97%
Rainfall 0.00 in
Snow Depth Not available.
6:01 AM 8:00 PM
Waning Gibbous, 47% visible
METAR KAVP 301054Z AUTO 00000KT 10SM OVC026 06/03 A3020 RMK AO2 SLP229 T00610033
Pressure 30.21 in
Visibility 10.0 miles
Clouds Overcast 2600 ft
Windchill 43 °F
Dew Point 42 °F
Humidity 97%
Rainfall 0.00 in
Snow Depth Not available.
6:01 AM 8:00 PM
Waning Gibbous, 47% visible
METAR KAVP 301054Z AUTO 00000KT 10SM OVC026 06/03 A3020 RMK AO2 SLP229 T00610033

10-Day Weather Forecast

Almanac

Astronomy

Apr. 30, 2016 Rise Set
Actual Time
Civil Twilight
Nautical Twilight
Astronomical Twilight
Moon
Length of Visible Light
Length of Day
Tomorrow will be .
, % of the Moon is Illuminated

Today's Extremes

State Highs State Lows

Community

WunderPhotos

Upload Photos

1,908,958 photos uploaded!

WunderBlog® & News

Nearby

Air Quality

  Air Quality AQ Index Pollutant
Not available.

Snow Depth

Station Depth Elevation

Earthquake Activity

City Distance Mag. Time & Date
Minimum magnitude displayed is 2.5.

Coastal Water Temperatures

Place Temperature

Stations

Nearby Weather Stations

Station Location Temp. Windchill Dew Point Humidity Wind Precip. Elev Updated Type
                   

Watches & Warnings

There are currently no watches in effect.